Time;durP1;ratioP1;P1;durP2;ratioP2;P2;SDS_P1;SDS_P2;PMS_P1;PMS_P2;Temp;Humidity;BMP_temperature;BMP_pressure;BME280_temperature;BME280_humidity;BME280_pressure;Samples;Min_cycle;Max_cycle;Signal;HPM_P1;HPM_P2
2022/01/28 00:03:46;;;;;;;12.38;3.03;;;;;;;2.62;79.33;101279.09;8834940;33;20273;-73
2022/01/28 00:08:49;;;;;;;12.85;3.03;;;;;;;2.67;79.57;101281.59;8833875;33;20434;-74
2022/01/28 00:13:58;;;;;;;12.13;3.17;;;;;;;2.63;79.76;101282.59;8833826;33;22069;-74
2022/01/28 00:40:23;;;;;;;15.88;3.45;;;;;;;2.53;80.58;101317.41;8812379;33;20286;-75
2022/01/28 00:45:26;;;;;;;6.40;2.75;;;;;;;2.45;80.61;101305.28;8838648;33;20186;-75
2022/01/28 00:50:31;;;;;;;6.28;2.35;;;;;;;2.38;81.74;101316.06;8837782;33;20430;-75
2022/01/28 00:55:34;;;;;;;10.57;3.35;;;;;;;2.32;81.20;101324.22;8837642;33;20693;-74
2022/01/28 01:00:37;;;;;;;9.48;2.67;;;;;;;2.53;80.45;101348.34;8838520;33;20178;-74
2022/01/28 01:05:42;;;;;;;11.88;3.22;;;;;;;2.68;80.45;101349.66;8837783;33;20516;-73
2022/01/28 01:10:45;;;;;;;9.60;3.25;;;;;;;2.55;81.23;101381.00;8837490;33;20206;-74
2022/01/28 01:15:52;;;;;;;13.30;3.60;;;;;;;2.57;81.37;101371.22;8812008;33;20216;-74
2022/01/28 01:21:04;;;;;;;14.27;3.92;;;;;;;2.54;81.25;101381.94;8836625;33;20184;-74
2022/01/28 01:26:10;;;;;;;9.00;3.13;;;;;;;2.48;80.28;101388.28;8836794;33;20679;-74
2022/01/28 01:31:18;;;;;;;8.45;3.03;;;;;;;2.54;79.50;101392.53;8810845;33;20530;-74
2022/01/28 01:36:23;;;;;;;13.77;3.42;;;;;;;2.28;79.22;101385.38;8837074;33;20935;-74
2022/01/28 01:41:32;;;;;;;12.93;2.90;;;;;;;2.43;78.66;101418.50;8837020;33;20146;-74
2022/01/28 01:46:58;;;;;;;10.45;3.28;;;;;;;2.66;77.88;101416.06;8836575;33;20273;-74
2022/01/28 01:52:04;;;;;;;10.20;3.03;;;;;;;2.16;78.63;101431.66;8836237;33;21252;-72
2022/01/28 01:57:10;;;;;;;14.60;2.70;;;;;;;2.73;77.78;101430.84;8836815;33;21141;-76
2022/01/28 02:02:13;;;;;;;11.45;3.03;;;;;;;2.45;78.63;101452.03;8836059;33;20380;-74
2022/01/28 02:07:18;;;;;;;11.20;2.80;;;;;;;2.32;78.26;101448.84;8836099;33;20333;-74
2022/01/28 02:12:22;;;;;;;25.63;2.72;;;;;;;2.45;78.04;101453.81;8836349;33;20178;-74
2022/01/28 02:17:25;;;;;;;12.05;3.63;;;;;;;2.33;77.66;101447.06;8836704;33;21882;-74
2022/01/28 02:22:29;;;;;;;8.55;2.85;;;;;;;2.51;76.86;101453.63;8835452;33;21015;-73
2022/01/28 02:27:32;;;;;;;10.38;2.60;;;;;;;2.28;77.30;101462.28;8835867;33;20170;-74
2022/01/28 02:32:37;;;;;;;13.25;3.38;;;;;;;2.27;77.49;101469.34;8835178;33;20616;-75
2022/01/28 02:37:42;;;;;;;10.77;2.03;;;;;;;2.16;77.75;101476.72;8835950;33;20153;-75
2022/01/28 02:42:53;;;;;;;9.20;3.50;;;;;;;2.18;78.72;101464.31;8835126;33;20170;-74
2022/01/28 02:48:00;;;;;;;9.63;2.95;;;;;;;2.03;78.58;101488.59;8834977;33;20246;-75
2022/01/28 02:53:08;;;;;;;16.20;2.65;;;;;;;2.24;78.08;101501.25;8835041;33;20180;-74
2022/01/28 02:58:20;;;;;;;10.48;3.30;;;;;;;2.43;78.70;101504.25;8835277;33;20190;-74
2022/01/28 03:03:25;;;;;;;7.80;2.72;;;;;;;2.48;78.25;101496.16;8835526;33;20231;-74
2022/01/28 03:08:30;;;;;;;11.18;3.10;;;;;;;2.76;77.61;101515.66;8834593;33;20628;-74
2022/01/28 03:13:46;;;;;;;10.90;2.70;;;;;;;2.39;77.67;101519.38;8834518;33;20211;-74
2022/01/28 03:18:53;;;;;;;16.02;3.50;;;;;;;2.78;77.04;101528.88;8834731;33;20785;-75
2022/01/28 03:23:58;;;;;;;5.07;2.28;;;;;;;2.52;77.11;101529.63;8835386;33;20237;-74
2022/01/28 03:29:01;;;;;;;12.88;3.50;;;;;;;2.74;76.74;101540.50;8840885;33;20138;-75
2022/01/28 03:34:05;;;;;;;16.75;2.95;;;;;;;2.51;77.18;101549.97;8822485;33;20151;-75
2022/01/28 03:39:10;;;;;;;11.43;3.00;;;;;;;2.55;77.39;101553.44;8835647;33;20173;-75
2022/01/28 03:44:13;;;;;;;8.00;2.20;;;;;;;2.60;76.40;101548.88;8834819;33;21913;-75
2022/01/28 03:49:16;;;;;;;7.60;2.33;;;;;;;2.29;76.81;101548.84;8834526;33;20531;-75
2022/01/28 03:54:21;;;;;;;11.25;3.55;;;;;;;1.98;78.19;101570.91;8833966;33;20216;-75
2022/01/28 03:59:24;;;;;;;10.95;2.70;;;;;;;2.29;78.36;101586.84;8833588;33;20186;-75
2022/01/28 04:15:34;;;;;;;7.30;2.13;;;;;;;2.42;75.44;101602.44;8689868;33;20285;-75
2022/01/28 04:20:37;;;;;;;18.17;3.15;;;;;;;2.33;75.55;101611.47;8834149;33;20233;-74
2022/01/28 04:25:42;;;;;;;8.98;2.58;;;;;;;2.40;75.04;101618.38;8835329;33;20234;-75
2022/01/28 04:30:45;;;;;;;13.60;2.55;;;;;;;2.61;74.66;101623.13;8833007;33;20242;-75
2022/01/28 04:35:51;;;;;;;6.68;2.65;;;;;;;2.47;75.07;101637.63;8833267;33;20185;-74
2022/01/28 04:41:04;;;;;;;8.88;2.60;;;;;;;2.56;74.28;101650.69;8832727;33;20142;-74
2022/01/28 04:46:13;;;;;;;14.40;3.33;;;;;;;2.46;74.66;101635.91;8832993;33;21616;-73
2022/01/28 04:51:27;;;;;;;11.02;2.80;;;;;;;2.53;74.70;101632.19;8833101;33;20193;-74
2022/01/28 04:56:45;;;;;;;12.43;3.08;;;;;;;2.56;74.98;101653.34;8832736;33;20172;-75
2022/01/28 05:02:09;;;;;;;5.57;1.88;;;;;;;2.54;74.30;101640.13;8836412;33;20328;-73
2022/01/28 05:07:31;;;;;;;5.93;2.88;;;;;;;2.25;75.88;101653.25;8836333;33;20189;-74
2022/01/28 05:23:31;;;;;;;9.43;4.55;;;;;;;2.59;76.99;101679.78;8837572;33;20138;-75
2022/01/28 05:28:37;;;;;;;14.57;3.40;;;;;;;2.38;77.56;101686.50;8836708;33;20130;-75
2022/01/28 05:33:40;;;;;;;8.43;2.83;;;;;;;2.11;77.68;101688.97;8838153;33;20272;-76
2022/01/28 05:38:44;;;;;;;6.15;2.55;;;;;;;2.42;76.02;101680.22;8838478;33;20430;-74
2022/01/28 05:43:48;;;;;;;15.15;3.17;;;;;;;2.41;76.10;101686.41;8837804;33;20174;-74
2022/01/28 05:48:51;;;;;;;15.32;3.85;;;;;;;2.35;76.08;101698.06;8837946;33;20235;-74
2022/01/28 05:53:57;;;;;;;10.73;2.90;;;;;;;2.44;75.83;101702.28;8836980;33;20185;-75
2022/01/28 05:59:02;;;;;;;11.63;3.17;;;;;;;2.27;75.78;101729.19;8836002;33;20238;-74
2022/01/28 06:04:05;;;;;;;16.67;3.65;;;;;;;2.59;74.71;101748.78;8836500;33;20182;-74
2022/01/28 06:09:08;;;;;;;10.10;2.83;;;;;;;2.37;74.66;101749.28;8836690;33;20190;-75
2022/01/28 06:14:13;;;;;;;11.52;3.53;;;;;;;2.57;73.79;101747.94;8836964;33;20428;-74
2022/01/28 06:19:16;;;;;;;13.48;4.18;;;;;;;2.53;74.26;101749.81;8836199;33;20186;-74
2022/01/28 06:24:19;;;;;;;13.73;3.85;;;;;;;2.14;75.45;101752.50;8836251;33;20178;-73
2022/01/28 06:29:23;;;;;;;16.92;5.40;;;;;;;2.14;75.02;101755.16;8836455;33;20182;-74
2022/01/28 06:34:27;;;;;;;11.85;3.28;;;;;;;2.29;74.54;101763.66;8836418;33;20212;-74
2022/01/28 06:39:32;;;;;;;16.10;3.80;;;;;;;2.61;73.08;101779.66;8835961;33;20178;-74
2022/01/28 06:44:36;;;;;;;15.30;4.05;;;;;;;2.36;73.93;101773.22;8835995;33;20178;-74
2022/01/28 06:49:40;;;;;;;11.38;3.30;;;;;;;2.09;74.14;101780.91;8835629;33;20192;-73
2022/01/28 06:54:43;;;;;;;13.82;4.15;;;;;;;2.57;73.74;101807.16;8835373;33;20189;-74
2022/01/28 06:59:47;;;;;;;4.80;2.80;;;;;;;2.63;73.18;101815.88;8834536;33;20166;-74
2022/01/28 07:04:51;;;;;;;10.27;3.38;;;;;;;2.35;74.40;101835.97;8835644;33;20247;-73
2022/01/28 07:09:54;;;;;;;16.30;4.22;;;;;;;2.64;73.49;101855.66;8836531;33;20280;-74
2022/01/28 07:14:59;;;;;;;14.60;4.15;;;;;;;2.88;72.51;101856.84;8835932;33;20150;-74
2022/01/28 07:20:02;;;;;;;15.25;3.83;;;;;;;2.95;71.91;101858.41;8834662;33;20228;-74
2022/01/28 07:25:07;;;;;;;14.35;3.05;;;;;;;2.80;72.21;101872.09;8835794;33;20232;-73
2022/01/28 07:30:13;;;;;;;9.70;3.22;;;;;;;2.89;72.28;101873.63;8834063;33;20177;-75
2022/01/28 07:35:16;;;;;;;16.08;3.88;;;;;;;2.86;72.79;101889.63;8834941;33;20138;-75
2022/01/28 07:40:19;;;;;;;16.42;4.10;;;;;;;2.92;72.13;101886.81;8834904;33;20211;-74
2022/01/28 07:45:24;;;;;;;8.50;3.10;;;;;;;2.77;72.41;101882.75;8834986;33;20157;-74
2022/01/28 07:50:28;;;;;;;17.27;3.78;;;;;;;3.25;71.83;101879.75;8834569;33;20242;-74
2022/01/28 07:55:31;;;;;;;9.38;3.70;;;;;;;3.00;71.99;101899.00;8834756;33;20191;-74
2022/01/28 08:00:35;;;;;;;9.07;3.22;;;;;;;3.37;71.68;101890.03;8833988;33;20586;-76
2022/01/28 08:05:38;;;;;;;18.92;4.30;;;;;;;3.42;70.38;101905.88;8834833;33;20134;-75
2022/01/28 08:10:41;;;;;;;7.30;3.67;;;;;;;2.80;71.23;101901.28;8833885;33;20209;-75
2022/01/28 08:15:45;;;;;;;9.35;3.47;;;;;;;3.17;70.86;101914.47;8834252;33;20508;-75
2022/01/28 08:20:48;;;;;;;12.02;4.05;;;;;;;3.08;71.11;101925.34;8833156;33;20205;-75
2022/01/28 08:25:54;;;;;;;15.60;5.05;;;;;;;3.20;70.31;101933.00;8833422;33;20534;-75
2022/01/28 08:30:59;;;;;;;12.48;3.65;;;;;;;3.14;71.38;101922.53;8795223;33;20334;-76
2022/01/28 08:36:02;;;;;;;13.27;3.90;;;;;;;3.27;71.14;101947.00;8801619;33;20317;-76
2022/01/28 08:41:06;;;;;;;11.85;4.00;;;;;;;3.11;71.72;101954.47;8807535;33;20182;-75
2022/01/28 08:46:11;;;;;;;14.82;3.80;;;;;;;3.46;71.29;101972.19;8837870;33;20482;-75
2022/01/28 08:51:14;;;;;;;13.60;3.42;;;;;;;2.94;71.25;101997.38;8805544;33;20273;-76
2022/01/28 08:56:17;;;;;;;15.35;4.13;;;;;;;3.22;71.63;101997.56;8838159;33;20186;-75
2022/01/28 09:01:21;;;;;;;12.95;3.55;;;;;;;3.43;71.44;101992.66;8813749;33;20250;-75
2022/01/28 09:06:25;;;;;;;14.02;6.25;;;;;;;2.99;71.67;102002.56;8825619;33;20186;-76
2022/01/28 09:11:46;;;;;;;11.95;3.40;;;;;;;3.06;72.24;101994.41;8809436;33;20187;-75
2022/01/28 09:16:52;;;;;;;15.40;4.80;;;;;;;3.36;72.13;102007.00;8797798;33;20132;-75
2022/01/28 09:21:55;;;;;;;12.65;4.15;;;;;;;3.40;71.49;102013.97;8777520;33;20186;-76
2022/01/28 09:26:58;;;;;;;15.07;3.95;;;;;;;3.46;71.38;102019.13;8778746;33;20186;-75
2022/01/28 09:32:03;;;;;;;13.20;3.95;;;;;;;3.60;71.15;102029.41;8778554;33;20274;-76
2022/01/28 09:37:07;;;;;;;16.70;3.90;;;;;;;3.84;70.43;102026.13;8778156;33;20938;-75
2022/01/28 09:42:15;;;;;;;15.35;3.72;;;;;;;3.98;70.45;102051.44;8777385;33;20186;-76
2022/01/28 09:47:19;;;;;;;12.68;3.50;;;;;;;4.08;68.16;102051.16;8777707;33;20179;-76
2022/01/28 09:52:22;;;;;;;13.60;3.85;;;;;;;4.34;68.85;102038.94;8777245;33;21171;-77
2022/01/28 09:57:25;;;;;;;12.35;4.15;;;;;;;3.89;70.20;102049.91;8777583;33;20528;-74
2022/01/28 10:02:56;;;;;;;15.98;4.38;;;;;;;3.54;70.55;102050.81;8777077;33;20458;-76
2022/01/28 10:08:06;;;;;;;17.67;4.93;;;;;;;4.13;69.59;102054.56;8778375;33;20682;-76
2022/01/28 10:13:12;;;;;;;12.40;3.60;;;;;;;4.60;67.84;102052.31;8783217;33;20507;-75
2022/01/28 10:18:16;;;;;;;11.90;4.13;;;;;;;4.65;67.29;102057.53;8778591;33;20437;-75
2022/01/28 10:23:20;;;;;;;15.00;4.20;;;;;;;4.62;66.79;102063.81;8792430;33;20436;-76
2022/01/28 10:28:23;;;;;;;17.20;4.60;;;;;;;5.17;65.93;102071.06;8779671;33;20253;-77
2022/01/28 10:33:28;;;;;;;14.38;3.55;;;;;;;5.02;65.33;102075.97;8753201;33;20178;-77
2022/01/28 10:38:33;;;;;;;17.85;5.20;;;;;;;4.37;65.33;102087.59;8776819;33;20183;-76
2022/01/28 10:43:45;;;;;;;11.60;4.30;;;;;;;4.80;65.72;102073.06;8776222;33;20930;-75
2022/01/28 10:48:53;;;;;;;17.40;5.10;;;;;;;5.06;64.85;102077.59;8775368;33;20143;-74
2022/01/28 10:54:10;;;;;;;15.13;4.22;;;;;;;4.61;65.31;102078.03;8779650;33;20686;-77
2022/01/28 10:59:16;;;;;;;13.82;4.30;;;;;;;5.00;63.64;102067.13;8761790;33;20259;-75
2022/01/28 11:04:23;;;;;;;13.43;4.13;;;;;;;4.90;64.31;102065.63;8778112;33;20292;-76
2022/01/28 11:09:26;;;;;;;13.52;4.20;;;;;;;4.73;63.53;102071.47;8775980;33;20187;-76
2022/01/28 11:14:29;;;;;;;11.23;3.80;;;;;;;5.47;63.18;102067.41;8798086;33;20154;-76
2022/01/28 11:19:39;;;;;;;10.07;2.97;;;;;;;6.22;60.80;102063.06;8783980;33;20183;-76
2022/01/28 11:25:16;;;;;;;12.60;4.00;;;;;;;6.22;60.68;102063.94;8775341;33;20243;-75
2022/01/28 11:30:26;;;;;;;16.13;5.10;;;;;;;5.97;59.98;102065.75;8721459;33;20169;-75
2022/01/28 11:35:35;;;;;;;13.38;4.45;;;;;;;6.04;60.43;102054.81;8775389;33;20174;-75
2022/01/28 11:40:45;;;;;;;16.15;4.53;;;;;;;6.38;59.84;102051.78;8774489;33;20179;-74
2022/01/28 11:46:05;;;;;;;14.70;4.43;;;;;;;6.54;60.73;102068.09;8773902;33;21685;-74
2022/01/28 11:51:16;;;;;;;17.48;3.95;;;;;;;5.81;60.31;102066.25;8774306;33;20240;-74
2022/01/28 11:56:19;;;;;;;17.95;4.38;;;;;;;5.93;61.14;102065.00;8774535;33;20338;-74
2022/01/28 12:01:26;;;;;;;14.73;4.57;;;;;;;5.95;60.79;102071.13;8774577;33;20268;-74
2022/01/28 12:06:31;;;;;;;9.23;3.65;;;;;;;5.82;59.62;102069.84;8775291;33;20248;-74
2022/01/28 12:11:43;;;;;;;18.88;3.95;;;;;;;5.89;60.29;102079.34;8775498;33;20143;-76
2022/01/28 12:16:57;;;;;;;12.18;3.67;;;;;;;6.63;58.44;102072.22;8750878;33;20135;-75
2022/01/28 12:22:09;;;;;;;11.15;3.40;;;;;;;6.63;56.24;102070.41;8780658;33;20500;-75
2022/01/28 12:27:13;;;;;;;16.02;3.97;;;;;;;6.62;58.14;102081.19;8755402;33;20239;-75
2022/01/28 12:32:23;;;;;;;17.23;4.80;;;;;;;6.47;58.94;102076.38;8779590;33;20175;-74
2022/01/28 12:37:33;;;;;;;10.43;3.67;;;;;;;5.90;58.70;102073.09;8779843;33;20632;-76
2022/01/28 12:42:40;;;;;;;18.27;4.35;;;;;;;5.63;59.55;102056.25;8778910;33;20601;-75
2022/01/28 12:47:46;;;;;;;20.65;3.83;;;;;;;7.08;56.76;102060.72;8779199;33;20187;-75
2022/01/28 12:52:50;;;;;;;13.63;3.47;;;;;;;7.14;55.83;102060.47;8753762;33;20688;-76
2022/01/28 12:57:53;;;;;;;16.67;4.05;;;;;;;7.14;55.82;102070.31;8778120;33;20191;-75
2022/01/28 13:02:56;;;;;;;12.40;3.78;;;;;;;6.61;55.97;102066.09;8779587;33;20204;-74
2022/01/28 13:13:22;;;;;;;13.10;3.78;;;;;;;6.87;55.88;102077.56;8779787;33;20361;-75
2022/01/28 13:18:25;;;;;;;16.08;4.10;;;;;;;6.79;56.07;102064.50;8754283;33;20659;-75
2022/01/28 13:23:35;;;;;;;10.75;4.75;;;;;;;8.11;52.94;102070.66;8778433;33;21424;-75
2022/01/28 13:28:40;;;;;;;12.88;4.82;;;;;;;8.59;49.18;102057.84;8777512;33;20621;-75
2022/01/28 13:33:44;;;;;;;16.02;4.22;;;;;;;7.81;52.30;102072.84;8777648;33;21346;-73
2022/01/28 13:38:48;;;;;;;11.52;3.42;;;;;;;6.93;52.82;102058.66;8776914;33;20222;-74
2022/01/28 13:43:53;;;;;;;13.52;3.30;;;;;;;6.24;53.81;102062.09;8777667;33;20229;-73
2022/01/28 13:48:57;;;;;;;7.72;3.28;;;;;;;6.88;54.53;102061.50;8776578;33;20273;-74
2022/01/28 13:54:18;;;;;;;12.80;3.55;;;;;;;6.83;54.02;102044.78;8777509;33;20214;-74
2022/01/28 13:59:25;;;;;;;13.05;4.82;;;;;;;6.90;54.63;102043.63;8776640;33;20222;-75
2022/01/28 14:04:35;;;;;;;17.70;4.00;;;;;;;6.11;55.90;102055.44;8776980;33;20194;-74
2022/01/28 14:09:54;;;;;;;10.88;3.70;;;;;;;5.70;55.52;102049.75;8777192;33;20158;-75
2022/01/28 14:15:09;;;;;;;19.23;4.73;;;;;;;5.48;55.20;102057.63;8790309;33;21967;-74
2022/01/28 14:20:13;;;;;;;16.88;4.88;;;;;;;5.61;55.41;102066.09;8777145;33;20275;-75
2022/01/28 14:25:17;;;;;;;17.23;4.25;;;;;;;5.58;56.70;102068.84;8777239;33;20186;-75
2022/01/28 14:30:33;;;;;;;14.65;4.22;;;;;;;6.03;56.81;102069.06;8776805;33;22441;-75
2022/01/28 14:35:37;;;;;;;12.30;3.72;;;;;;;5.85;57.21;102072.38;8776684;33;20189;-75
2022/01/28 14:40:41;;;;;;;18.58;5.20;;;;;;;5.73;56.86;102068.31;8776575;33;20166;-75
2022/01/28 14:45:44;;;;;;;17.08;3.42;;;;;;;5.87;56.80;102079.41;8777081;33;20231;-75
2022/01/28 14:50:47;;;;;;;15.05;4.60;;;;;;;5.73;58.05;102076.31;8776198;33;20502;-74
2022/01/28 14:55:52;;;;;;;15.85;4.40;;;;;;;5.54;58.50;102065.44;8775764;33;20968;-75
2022/01/28 15:00:54;;;;;;;13.30;4.00;;;;;;;5.63;58.53;102077.56;8775933;33;20698;-76
2022/01/28 15:05:57;;;;;;;14.90;4.05;;;;;;;5.55;58.88;102069.84;8776617;33;20228;-74
2022/01/28 15:11:03;;;;;;;15.25;4.13;;;;;;;5.46;59.52;102078.16;8775005;33;20143;-75
2022/01/28 15:16:07;;;;;;;13.98;4.13;;;;;;;5.70;59.47;102080.00;8750666;33;20194;-75
2022/01/28 15:21:10;;;;;;;19.10;4.03;;;;;;;5.21;60.18;102088.69;8774829;33;20214;-74
2022/01/28 15:26:16;;;;;;;13.13;3.90;;;;;;;5.25;60.57;102088.56;8776194;33;20182;-74
2022/01/28 15:36:40;;;;;;;14.18;4.72;;;;;;;4.66;61.73;102103.66;8776161;33;20182;-74
2022/01/28 15:41:44;;;;;;;17.58;3.58;;;;;;;4.09;62.98;102106.09;8774959;33;20321;-75
2022/01/28 15:46:47;;;;;;;8.07;3.05;;;;;;;4.73;61.86;102094.56;8786644;33;20544;-75
2022/01/28 15:51:51;;;;;;;19.25;3.72;;;;;;;4.46;61.68;102105.09;8774388;33;20143;-75
2022/01/28 15:56:56;;;;;;;13.25;3.70;;;;;;;4.53;61.25;102098.69;8774566;33;20508;-75
2022/01/28 16:01:59;;;;;;;11.52;3.67;;;;;;;4.51;61.13;102112.94;8777548;33;20613;-76
2022/01/28 16:07:02;;;;;;;15.70;4.10;;;;;;;4.48;61.53;102113.03;8775915;33;20200;-74
2022/01/28 16:12:18;;;;;;;10.65;3.80;;;;;;;4.47;61.64;102119.25;8775961;33;20437;-73
2022/01/28 16:17:36;;;;;;;7.57;3.08;;;;;;;4.22;61.84;102114.59;8774259;33;20143;-74
2022/01/28 16:22:40;;;;;;;12.45;3.50;;;;;;;4.30;61.68;102114.41;8774131;33;20162;-75
2022/01/28 16:27:44;;;;;;;19.65;4.47;;;;;;;4.40;61.68;102116.78;8775577;33;20190;-73
2022/01/28 16:32:48;;;;;;;9.68;3.58;;;;;;;4.31;61.91;102116.19;8774833;33;20191;-74
2022/01/28 16:37:51;;;;;;;15.43;3.63;;;;;;;4.38;62.01;102110.63;8774757;33;20191;-74
2022/01/28 16:43:02;;;;;;;8.65;3.53;;;;;;;4.27;62.15;102115.38;8775270;33;20639;-75
2022/01/28 16:48:06;;;;;;;13.70;4.03;;;;;;;4.30;62.57;102107.28;8788574;33;20455;-75
2022/01/28 16:53:09;;;;;;;12.45;3.83;;;;;;;4.02;63.22;102112.50;8797800;33;22077;-75
2022/01/28 16:58:13;;;;;;;17.65;4.85;;;;;;;4.07;63.31;102101.75;8787728;33;20175;-74
2022/01/28 17:03:16;;;;;;;17.35;4.03;;;;;;;4.06;63.24;102097.31;8788754;33;20922;-73
2022/01/28 17:08:19;;;;;;;13.90;3.35;;;;;;;4.06;63.71;102098.22;8780804;33;20151;-73
2022/01/28 17:13:24;;;;;;;11.52;4.00;;;;;;;3.95;63.50;102093.19;8779450;33;20895;-75
2022/01/28 17:18:27;;;;;;;7.38;3.25;;;;;;;4.13;63.47;102085.59;8778927;33;20186;-74
2022/01/28 17:23:31;;;;;;;18.50;5.75;;;;;;;4.02;64.39;102083.22;8779195;33;20175;-73
2022/01/28 17:28:35;;;;;;;10.85;4.38;;;;;;;3.87;64.67;102086.31;8777834;33;20194;-74
2022/01/28 17:33:38;;;;;;;7.35;3.75;;;;;;;3.90;64.01;102081.78;8779388;33;20277;-74
2022/01/28 17:38:42;;;;;;;11.77;4.30;;;;;;;3.95;64.30;102076.34;8779844;33;20215;-74
2022/01/28 17:43:46;;;;;;;13.65;3.83;;;;;;;4.03;64.36;102070.81;8797214;33;20185;-75
2022/01/28 17:48:49;;;;;;;15.02;3.97;;;;;;;4.05;64.30;102064.53;8778255;33;21000;-73
2022/01/28 17:53:52;;;;;;;16.48;4.10;;;;;;;4.21;63.56;102064.13;8778016;33;20519;-73
2022/01/28 17:58:56;;;;;;;17.05;4.80;;;;;;;4.24;63.23;102066.69;8779422;33;20190;-74
2022/01/28 18:03:59;;;;;;;10.68;4.60;;;;;;;4.17;63.51;102066.00;8778350;33;20201;-73
2022/01/28 18:09:02;;;;;;;14.35;5.03;;;;;;;4.04;64.06;102069.91;8778223;33;20935;-73
2022/01/28 18:14:07;;;;;;;12.80;4.93;;;;;;;4.10;64.11;102056.44;8777172;33;20732;-74
2022/01/28 18:19:10;;;;;;;16.75;6.65;;;;;;;4.09;64.05;102065.34;8776995;33;20435;-74
2022/01/28 18:24:14;;;;;;;13.50;4.55;;;;;;;4.08;64.26;102048.50;8779468;33;20452;-74
2022/01/28 18:29:24;;;;;;;12.93;4.72;;;;;;;4.06;64.61;102034.38;8776842;33;20270;-74
2022/01/28 18:34:28;;;;;;;17.13;6.65;;;;;;;4.01;64.71;102038.09;8777036;33;20196;-74
2022/01/28 18:39:31;;;;;;;14.63;5.13;;;;;;;4.09;64.69;102038.75;8776275;33;21607;-74
2022/01/28 18:44:41;;;;;;;16.25;4.80;;;;;;;4.07;64.79;102038.78;8776674;33;20182;-74
2022/01/28 18:49:44;;;;;;;19.08;5.45;;;;;;;4.09;64.88;102025.44;8751171;33;20187;-73
2022/01/28 18:54:47;;;;;;;19.38;6.13;;;;;;;4.05;65.05;102014.00;8776534;33;20187;-73
2022/01/28 18:59:52;;;;;;;13.95;5.20;;;;;;;3.98;65.29;102001.81;8751325;33;21169;-74
2022/01/28 19:04:56;;;;;;;9.30;5.55;;;;;;;3.89;65.58;101989.63;8776605;33;20588;-73
2022/01/28 19:09:59;;;;;;;20.13;5.50;;;;;;;3.88;65.90;101979.91;8776131;33;20143;-74
2022/01/28 19:15:04;;;;;;;19.90;5.68;;;;;;;3.88;66.17;101982.56;8777235;33;20232;-75
2022/01/28 19:20:09;;;;;;;15.80;5.30;;;;;;;3.82;66.56;101964.13;8775103;33;20282;-74
2022/01/28 19:25:16;;;;;;;17.98;5.60;;;;;;;3.85;66.56;101963.19;8776366;33;20694;-75
2022/01/28 19:30:21;;;;;;;18.15;5.43;;;;;;;3.76;66.90;101953.69;8776224;33;20257;-73
2022/01/28 19:35:24;;;;;;;15.50;6.63;;;;;;;3.77;67.55;101925.28;8775958;33;20187;-73
2022/01/28 19:40:27;;;;;;;16.35;6.75;;;;;;;3.95;67.16;101927.44;8775093;33;20186;-73
2022/01/28 19:45:34;;;;;;;14.65;6.13;;;;;;;3.81;67.51;101924.28;8775391;33;20182;-73
2022/01/28 19:50:40;;;;;;;14.52;6.82;;;;;;;3.92;67.16;101935.47;8774814;33;20158;-74
2022/01/28 19:55:43;;;;;;;13.75;6.50;;;;;;;3.89;67.41;101920.47;8775364;33;20244;-75
2022/01/28 20:00:48;;;;;;;17.92;6.93;;;;;;;3.71;67.85;101905.06;8774898;33;20542;-74
2022/01/28 20:05:51;;;;;;;18.60;6.57;;;;;;;3.71;68.12;101903.28;8775319;33;20182;-75
2022/01/28 20:10:54;;;;;;;14.27;6.90;;;;;;;3.64;68.57;101917.66;8775362;33;21423;-74
2022/01/28 20:15:58;;;;;;;19.92;8.52;;;;;;;3.83;68.41;101919.81;8774937;33;20171;-74
2022/01/28 20:21:02;;;;;;;14.70;7.38;;;;;;;3.70;69.12;101908.63;8774407;33;20242;-74
2022/01/28 20:26:05;;;;;;;20.15;9.77;;;;;;;3.83;69.05;101904.72;8774788;33;20190;-73
2022/01/28 20:31:10;;;;;;;14.38;7.25;;;;;;;3.57;69.82;101904.59;8774330;33;20628;-73
2022/01/28 20:36:14;;;;;;;22.27;9.95;;;;;;;3.73;69.75;101898.81;8773836;33;20154;-75
2022/01/28 20:41:17;;;;;;;22.20;12.75;;;;;;;3.79;70.09;101887.13;8778409;33;20187;-73
2022/01/28 20:46:21;;;;;;;33.67;18.00;;;;;;;3.87;70.28;101877.13;8779027;33;20446;-74
2022/01/28 20:51:25;;;;;;;53.72;26.52;;;;;;;3.78;70.26;101898.66;8784694;33;20190;-74
2022/01/28 20:56:28;;;;;;;51.92;30.30;;;;;;;3.70;70.85;101879.41;8783004;33;20188;-75
2022/01/28 21:01:32;;;;;;;56.45;29.90;;;;;;;3.66;70.98;101881.28;8836392;33;21636;-73
2022/01/28 21:06:35;;;;;;;43.45;23.58;;;;;;;3.67;71.34;101888.31;8813255;33;20423;-74
2022/01/28 21:11:38;;;;;;;32.92;16.92;;;;;;;3.33;72.85;101884.88;8837872;33;20433;-75
2022/01/28 21:16:45;;;;;;;21.48;12.30;;;;;;;3.47;72.59;101875.59;8812785;33;20146;-74
2022/01/28 21:21:48;;;;;;;26.48;12.20;;;;;;;3.35;73.58;101872.44;8838129;33;20162;-75
2022/01/28 21:26:52;;;;;;;20.95;9.88;;;;;;;3.18;73.90;101871.09;8838009;33;20157;-75
2022/01/28 21:31:56;;;;;;;16.10;10.00;;;;;;;3.46;74.00;101873.00;8838360;33;20185;-75
2022/01/28 21:36:59;;;;;;;22.50;10.20;;;;;;;3.23;75.46;101853.22;8838303;33;20184;-74
2022/01/28 21:42:03;;;;;;;29.73;14.95;;;;;;;3.20;77.00;101849.78;8837113;33;20143;-75
2022/01/28 21:47:07;;;;;;;26.85;14.02;;;;;;;3.12;78.11;101843.81;8837001;33;20178;-76
2022/01/28 21:52:10;;;;;;;32.10;13.70;;;;;;;3.10;79.01;101854.50;8836953;33;20231;-74
2022/01/28 21:57:13;;;;;;;51.30;22.55;;;;;;;3.52;78.40;101832.09;8816591;33;20205;-74
2022/01/28 22:02:18;;;;;;;54.63;24.00;;;;;;;3.57;78.04;101844.34;8808179;33;20175;-75
2022/01/28 22:07:21;;;;;;;60.03;25.20;;;;;;;3.61;78.50;101816.75;8833301;33;20151;-75
2022/01/28 22:12:24;;;;;;;59.42;27.02;;;;;;;3.40;79.35;101804.97;8837754;33;20173;-75
2022/01/28 22:17:29;;;;;;;54.97;22.77;;;;;;;3.41;79.34;101796.06;8837014;33;20174;-73
2022/01/28 22:22:32;;;;;;;52.22;21.80;;;;;;;3.46;79.58;101799.47;8836705;33;20235;-73
2022/01/28 22:27:35;;;;;;;56.10;23.30;;;;;;;3.78;78.14;101786.13;8836839;33;20186;-75
2022/01/28 22:32:40;;;;;;;54.05;25.25;;;;;;;3.79;78.24;101778.13;8836154;33;20243;-74
2022/01/28 22:37:43;;;;;;;35.15;14.52;;;;;;;3.34;79.55;101783.88;8836641;33;20221;-76
2022/01/28 22:42:47;;;;;;;60.78;26.88;;;;;;;3.79;78.54;101775.47;8826611;33;20175;-75
2022/01/28 22:47:51;;;;;;;55.35;24.10;;;;;;;3.65;79.15;101748.47;8780319;33;20485;-75
2022/01/28 22:52:54;;;;;;;61.22;22.63;;;;;;;3.72;79.17;101760.63;8777459;33;20148;-74
2022/01/28 22:57:57;;;;;;;56.97;26.05;;;;;;;3.58;79.82;101747.75;8776301;33;20438;-76
2022/01/28 23:03:01;;;;;;;66.00;25.23;;;;;;;3.54;79.74;101731.94;8774748;33;21038;-75
2022/01/28 23:08:06;;;;;;;44.90;18.85;;;;;;;3.49;80.33;101740.94;8775500;33;20213;-74
2022/01/28 23:13:09;;;;;;;62.72;26.77;;;;;;;3.78;80.04;101730.31;8775091;33;20228;-75
2022/01/28 23:18:14;;;;;;;60.20;23.88;;;;;;;3.61;79.90;101731.72;8775535;33;20356;-75
2022/01/28 23:23:18;;;;;;;52.47;22.25;;;;;;;3.66;79.45;101750.19;8774970;33;20143;-74
2022/01/28 23:28:21;;;;;;;57.88;24.05;;;;;;;3.67;79.83;101733.31;8787033;33;20186;-74
2022/01/28 23:33:25;;;;;;;45.38;19.67;;;;;;;3.88;79.29;101705.19;8802744;33;20236;-74
2022/01/28 23:38:28;;;;;;;59.58;26.10;;;;;;;4.08;78.37;101684.13;8807533;33;20150;-75
2022/01/28 23:43:31;;;;;;;51.75;21.42;;;;;;;3.60;80.30;101671.53;8821872;33;20434;-74
2022/01/28 23:48:36;;;;;;;54.60;22.00;;;;;;;3.89;79.23;101673.22;8837645;33;20173;-74
2022/01/28 23:53:39;;;;;;;40.53;18.40;;;;;;;3.89;79.34;101649.28;8834464;33;20208;-75
2022/01/28 23:58:43;;;;;;;54.60;24.90;;;;;;;3.84;79.72;101645.94;8834117;33;20234;-74
